sensor_id;sensor_type;location;lat;lon;timestamp;P1;durP1;ratioP1;P2;durP2;ratioP2
17201;SDS011;8717;53.588;10.176;2024-01-27T00:00:16;20.13;;;4.43;;
17201;SDS011;8717;53.588;10.176;2024-01-27T00:02:43;28.03;;;4.87;;
17201;SDS011;8717;53.588;10.176;2024-01-27T00:05:10;26.03;;;4.67;;
17201;SDS011;8717;53.588;10.176;2024-01-27T00:07:38;23.47;;;5.03;;
17201;SDS011;8717;53.588;10.176;2024-01-27T00:10:05;24.40;;;5.40;;
17201;SDS011;8717;53.588;10.176;2024-01-27T00:12:33;26.80;;;4.57;;
17201;SDS011;8717;53.588;10.176;2024-01-27T00:15:00;18.90;;;4.53;;
17201;SDS011;8717;53.588;10.176;2024-01-27T00:17:26;24.50;;;5.73;;
17201;SDS011;8717;53.588;10.176;2024-01-27T00:19:53;23.13;;;4.93;;
17201;SDS011;8717;53.588;10.176;2024-01-27T00:22:20;26.03;;;4.60;;
17201;SDS011;8717;53.588;10.176;2024-01-27T00:24:48;19.43;;;4.90;;
17201;SDS011;8717;53.588;10.176;2024-01-27T00:27:15;22.80;;;4.97;;
17201;SDS011;8717;53.588;10.176;2024-01-27T00:29:41;19.33;;;4.77;;
17201;SDS011;8717;53.588;10.176;2024-01-27T00:32:08;21.77;;;4.77;;
17201;SDS011;8717;53.588;10.176;2024-01-27T00:34:35;23.53;;;5.03;;
17201;SDS011;8717;53.588;10.176;2024-01-27T00:37:01;24.53;;;5.40;;
17201;SDS011;8717;53.588;10.176;2024-01-27T00:39:28;19.30;;;4.23;;
17201;SDS011;8717;53.588;10.176;2024-01-27T00:41:56;24.83;;;5.23;;
17201;SDS011;8717;53.588;10.176;2024-01-27T00:44:23;21.13;;;4.67;;
17201;SDS011;8717;53.588;10.176;2024-01-27T00:46:50;17.87;;;4.17;;
17201;SDS011;8717;53.588;10.176;2024-01-27T00:49:17;26.20;;;4.53;;
17201;SDS011;8717;53.588;10.176;2024-01-27T00:51:44;22.87;;;4.43;;
17201;SDS011;8717;53.588;10.176;2024-01-27T00:54:11;18.60;;;4.33;;
17201;SDS011;8717;53.588;10.176;2024-01-27T00:56:38;20.53;;;5.17;;
17201;SDS011;8717;53.588;10.176;2024-01-27T00:59:06;25.07;;;4.60;;
17201;SDS011;8717;53.588;10.176;2024-01-27T01:01:33;20.37;;;4.30;;
17201;SDS011;8717;53.588;10.176;2024-01-27T01:04:00;18.60;;;4.27;;
17201;SDS011;8717;53.588;10.176;2024-01-27T01:06:27;28.07;;;4.73;;
17201;SDS011;8717;53.588;10.176;2024-01-27T01:08:54;23.77;;;4.60;;
17201;SDS011;8717;53.588;10.176;2024-01-27T01:11:21;27.13;;;4.37;;
17201;SDS011;8717;53.588;10.176;2024-01-27T01:13:48;24.37;;;4.33;;
17201;SDS011;8717;53.588;10.176;2024-01-27T01:16:17;25.33;;;4.97;;
17201;SDS011;8717;53.588;10.176;2024-01-27T01:18:44;19.90;;;4.50;;
17201;SDS011;8717;53.588;10.176;2024-01-27T01:21:11;24.93;;;4.97;;
17201;SDS011;8717;53.588;10.176;2024-01-27T01:23:38;26.17;;;5.00;;
17201;SDS011;8717;53.588;10.176;2024-01-27T01:26:06;24.10;;;4.83;;
17201;SDS011;8717;53.588;10.176;2024-01-27T01:28:33;30.03;;;6.10;;
17201;SDS011;8717;53.588;10.176;2024-01-27T01:31:00;24.30;;;5.43;;
17201;SDS011;8717;53.588;10.176;2024-01-27T01:33:29;22.93;;;5.47;;
17201;SDS011;8717;53.588;10.176;2024-01-27T01:35:56;18.80;;;4.90;;
17201;SDS011;8717;53.588;10.176;2024-01-27T01:38:23;20.50;;;4.93;;
17201;SDS011;8717;53.588;10.176;2024-01-27T01:40:50;26.50;;;5.37;;
17201;SDS011;8717;53.588;10.176;2024-01-27T01:43:17;27.30;;;5.57;;
17201;SDS011;8717;53.588;10.176;2024-01-27T01:45:44;21.70;;;4.63;;
17201;SDS011;8717;53.588;10.176;2024-01-27T01:48:11;20.83;;;4.70;;
17201;SDS011;8717;53.588;10.176;2024-01-27T01:50:39;20.80;;;4.97;;
17201;SDS011;8717;53.588;10.176;2024-01-27T01:53:06;26.20;;;5.13;;
17201;SDS011;8717;53.588;10.176;2024-01-27T01:55:34;24.63;;;4.93;;
17201;SDS011;8717;53.588;10.176;2024-01-27T01:58:01;17.83;;;4.23;;
17201;SDS011;8717;53.588;10.176;2024-01-27T02:00:28;26.10;;;4.93;;
17201;SDS011;8717;53.588;10.176;2024-01-27T02:02:56;21.27;;;4.73;;
17201;SDS011;8717;53.588;10.176;2024-01-27T02:05:23;18.40;;;4.33;;
17201;SDS011;8717;53.588;10.176;2024-01-27T02:07:51;24.37;;;4.33;;
17201;SDS011;8717;53.588;10.176;2024-01-27T02:10:21;27.57;;;5.30;;
17201;SDS011;8717;53.588;10.176;2024-01-27T02:12:48;21.37;;;4.43;;
17201;SDS011;8717;53.588;10.176;2024-01-27T02:15:15;23.73;;;4.30;;
17201;SDS011;8717;53.588;10.176;2024-01-27T02:17:42;20.67;;;4.87;;
17201;SDS011;8717;53.588;10.176;2024-01-27T02:20:09;19.27;;;4.50;;
17201;SDS011;8717;53.588;10.176;2024-01-27T02:22:36;21.30;;;3.93;;
17201;SDS011;8717;53.588;10.176;2024-01-27T02:25:04;22.60;;;5.20;;
17201;SDS011;8717;53.588;10.176;2024-01-27T02:27:31;23.93;;;4.93;;
17201;SDS011;8717;53.588;10.176;2024-01-27T02:29:58;19.27;;;4.47;;
17201;SDS011;8717;53.588;10.176;2024-01-27T02:32:25;26.40;;;5.00;;
17201;SDS011;8717;53.588;10.176;2024-01-27T02:34:52;26.13;;;5.43;;
17201;SDS011;8717;53.588;10.176;2024-01-27T02:37:19;29.20;;;4.90;;
17201;SDS011;8717;53.588;10.176;2024-01-27T02:39:45;20.97;;;4.43;;
17201;SDS011;8717;53.588;10.176;2024-01-27T02:42:13;25.30;;;5.43;;
17201;SDS011;8717;53.588;10.176;2024-01-27T02:44:40;20.93;;;4.07;;
17201;SDS011;8717;53.588;10.176;2024-01-27T02:47:07;21.93;;;4.10;;
17201;SDS011;8717;53.588;10.176;2024-01-27T02:49:34;24.23;;;4.67;;
17201;SDS011;8717;53.588;10.176;2024-01-27T02:52:01;24.60;;;4.40;;
17201;SDS011;8717;53.588;10.176;2024-01-27T02:54:28;23.43;;;4.73;;
17201;SDS011;8717;53.588;10.176;2024-01-27T02:56:55;24.77;;;4.97;;
17201;SDS011;8717;53.588;10.176;2024-01-27T02:59:24;23.90;;;5.13;;
17201;SDS011;8717;53.588;10.176;2024-01-27T03:01:51;23.37;;;4.50;;
17201;SDS011;8717;53.588;10.176;2024-01-27T03:04:18;21.60;;;5.00;;
17201;SDS011;8717;53.588;10.176;2024-01-27T03:06:45;25.27;;;4.77;;
17201;SDS011;8717;53.588;10.176;2024-01-27T03:09:12;21.23;;;4.67;;
17201;SDS011;8717;53.588;10.176;2024-01-27T03:11:39;22.37;;;4.53;;
17201;SDS011;8717;53.588;10.176;2024-01-27T03:14:06;18.83;;;4.50;;
17201;SDS011;8717;53.588;10.176;2024-01-27T03:16:34;22.63;;;5.87;;
17201;SDS011;8717;53.588;10.176;2024-01-27T03:19:01;22.53;;;5.20;;
17201;SDS011;8717;53.588;10.176;2024-01-27T03:21:29;24.33;;;5.00;;
17201;SDS011;8717;53.588;10.176;2024-01-27T03:23:55;18.67;;;4.33;;
17201;SDS011;8717;53.588;10.176;2024-01-27T03:26:22;25.73;;;5.33;;
17201;SDS011;8717;53.588;10.176;2024-01-27T03:28:50;23.67;;;5.07;;
17201;SDS011;8717;53.588;10.176;2024-01-27T03:31:17;21.27;;;4.93;;
17201;SDS011;8717;53.588;10.176;2024-01-27T03:33:45;27.30;;;5.33;;
17201;SDS011;8717;53.588;10.176;2024-01-27T03:36:12;22.90;;;5.27;;
17201;SDS011;8717;53.588;10.176;2024-01-27T03:38:40;17.70;;;5.17;;
17201;SDS011;8717;53.588;10.176;2024-01-27T03:41:07;25.13;;;5.23;;
17201;SDS011;8717;53.588;10.176;2024-01-27T03:43:34;22.37;;;4.97;;
17201;SDS011;8717;53.588;10.176;2024-01-27T03:46:01;19.33;;;4.63;;
17201;SDS011;8717;53.588;10.176;2024-01-27T03:48:28;24.33;;;5.17;;
17201;SDS011;8717;53.588;10.176;2024-01-27T03:50:56;22.53;;;4.97;;
17201;SDS011;8717;53.588;10.176;2024-01-27T03:53:23;25.37;;;6.00;;
17201;SDS011;8717;53.588;10.176;2024-01-27T03:55:50;20.57;;;5.37;;
17201;SDS011;8717;53.588;10.176;2024-01-27T03:58:16;23.53;;;4.67;;
17201;SDS011;8717;53.588;10.176;2024-01-27T04:00:43;21.03;;;4.90;;
17201;SDS011;8717;53.588;10.176;2024-01-27T04:03:10;21.33;;;4.27;;
17201;SDS011;8717;53.588;10.176;2024-01-27T04:05:37;25.50;;;4.77;;
17201;SDS011;8717;53.588;10.176;2024-01-27T04:08:05;21.77;;;4.97;;
17201;SDS011;8717;53.588;10.176;2024-01-27T04:10:32;20.83;;;4.47;;
17201;SDS011;8717;53.588;10.176;2024-01-27T04:12:59;22.70;;;5.20;;
17201;SDS011;8717;53.588;10.176;2024-01-27T04:15:26;25.13;;;5.30;;
17201;SDS011;8717;53.588;10.176;2024-01-27T04:17:53;28.13;;;6.03;;
17201;SDS011;8717;53.588;10.176;2024-01-27T04:20:20;22.33;;;5.57;;
17201;SDS011;8717;53.588;10.176;2024-01-27T04:22:47;28.47;;;5.43;;
17201;SDS011;8717;53.588;10.176;2024-01-27T04:25:15;20.57;;;4.33;;
17201;SDS011;8717;53.588;10.176;2024-01-27T04:27:42;27.03;;;5.23;;
17201;SDS011;8717;53.588;10.176;2024-01-27T04:30:10;22.97;;;5.40;;
17201;SDS011;8717;53.588;10.176;2024-01-27T04:32:38;18.73;;;4.40;;
17201;SDS011;8717;53.588;10.176;2024-01-27T04:35:08;22.17;;;4.73;;
17201;SDS011;8717;53.588;10.176;2024-01-27T04:37:35;23.07;;;5.03;;
17201;SDS011;8717;53.588;10.176;2024-01-27T04:40:02;22.53;;;4.70;;
17201;SDS011;8717;53.588;10.176;2024-01-27T04:42:32;22.70;;;4.83;;
17201;SDS011;8717;53.588;10.176;2024-01-27T04:44:59;25.13;;;4.67;;
17201;SDS011;8717;53.588;10.176;2024-01-27T04:47:26;26.10;;;4.80;;
17201;SDS011;8717;53.588;10.176;2024-01-27T04:49:53;34.87;;;5.17;;
17201;SDS011;8717;53.588;10.176;2024-01-27T04:52:20;23.73;;;4.77;;
17201;SDS011;8717;53.588;10.176;2024-01-27T04:54:47;27.17;;;5.83;;
17201;SDS011;8717;53.588;10.176;2024-01-27T04:57:13;19.17;;;5.30;;
17201;SDS011;8717;53.588;10.176;2024-01-27T04:59:42;22.77;;;5.10;;
17201;SDS011;8717;53.588;10.176;2024-01-27T05:02:08;24.33;;;4.80;;
17201;SDS011;8717;53.588;10.176;2024-01-27T05:04:36;20.47;;;4.80;;
17201;SDS011;8717;53.588;10.176;2024-01-27T05:07:03;24.43;;;4.40;;
17201;SDS011;8717;53.588;10.176;2024-01-27T05:09:30;28.13;;;4.73;;
17201;SDS011;8717;53.588;10.176;2024-01-27T05:11:59;23.63;;;4.47;;
17201;SDS011;8717;53.588;10.176;2024-01-27T05:14:26;22.53;;;4.27;;
17201;SDS011;8717;53.588;10.176;2024-01-27T05:16:54;24.77;;;5.10;;
17201;SDS011;8717;53.588;10.176;2024-01-27T05:19:20;24.37;;;5.17;;
17201;SDS011;8717;53.588;10.176;2024-01-27T05:21:47;22.50;;;4.13;;
17201;SDS011;8717;53.588;10.176;2024-01-27T05:24:14;24.73;;;5.43;;
17201;SDS011;8717;53.588;10.176;2024-01-27T05:26:41;19.73;;;4.53;;
17201;SDS011;8717;53.588;10.176;2024-01-27T05:29:08;28.57;;;6.13;;
17201;SDS011;8717;53.588;10.176;2024-01-27T05:31:34;26.13;;;5.80;;
17201;SDS011;8717;53.588;10.176;2024-01-27T05:34:03;15.33;;;4.43;;
17201;SDS011;8717;53.588;10.176;2024-01-27T05:36:29;21.90;;;4.57;;
17201;SDS011;8717;53.588;10.176;2024-01-27T05:38:56;30.30;;;5.83;;
17201;SDS011;8717;53.588;10.176;2024-01-27T05:41:25;23.03;;;4.90;;
17201;SDS011;8717;53.588;10.176;2024-01-27T05:43:54;22.70;;;4.97;;
17201;SDS011;8717;53.588;10.176;2024-01-27T05:46:22;22.50;;;5.07;;
17201;SDS011;8717;53.588;10.176;2024-01-27T05:48:49;25.07;;;5.23;;
17201;SDS011;8717;53.588;10.176;2024-01-27T05:51:20;22.00;;;4.93;;
17201;SDS011;8717;53.588;10.176;2024-01-27T05:53:48;17.97;;;4.30;;
17201;SDS011;8717;53.588;10.176;2024-01-27T05:56:15;26.53;;;6.10;;
17201;SDS011;8717;53.588;10.176;2024-01-27T05:58:42;22.10;;;4.97;;
17201;SDS011;8717;53.588;10.176;2024-01-27T06:01:08;27.70;;;5.33;;
17201;SDS011;8717;53.588;10.176;2024-01-27T06:03:35;23.53;;;5.27;;
17201;SDS011;8717;53.588;10.176;2024-01-27T06:06:02;18.60;;;4.83;;
17201;SDS011;8717;53.588;10.176;2024-01-27T06:08:30;23.00;;;5.10;;
17201;SDS011;8717;53.588;10.176;2024-01-27T06:10:57;23.13;;;5.53;;
17201;SDS011;8717;53.588;10.176;2024-01-27T06:13:24;22.30;;;4.90;;
17201;SDS011;8717;53.588;10.176;2024-01-27T06:15:51;23.07;;;5.30;;
17201;SDS011;8717;53.588;10.176;2024-01-27T06:18:17;23.77;;;5.30;;
17201;SDS011;8717;53.588;10.176;2024-01-27T06:20:44;20.70;;;5.00;;
17201;SDS011;8717;53.588;10.176;2024-01-27T06:23:11;29.87;;;5.87;;
17201;SDS011;8717;53.588;10.176;2024-01-27T06:25:39;26.17;;;5.47;;
17201;SDS011;8717;53.588;10.176;2024-01-27T06:28:06;27.20;;;5.70;;
17201;SDS011;8717;53.588;10.176;2024-01-27T06:30:33;27.50;;;5.10;;
17201;SDS011;8717;53.588;10.176;2024-01-27T06:33:00;18.23;;;4.60;;
17201;SDS011;8717;53.588;10.176;2024-01-27T06:35:27;30.70;;;5.80;;
17201;SDS011;8717;53.588;10.176;2024-01-27T06:37:54;21.67;;;4.90;;
17201;SDS011;8717;53.588;10.176;2024-01-27T06:40:21;27.80;;;5.93;;
17201;SDS011;8717;53.588;10.176;2024-01-27T06:42:50;16.20;;;4.80;;
17201;SDS011;8717;53.588;10.176;2024-01-27T06:45:17;22.87;;;5.27;;
17201;SDS011;8717;53.588;10.176;2024-01-27T06:47:44;26.17;;;4.70;;
17201;SDS011;8717;53.588;10.176;2024-01-27T06:50:11;22.00;;;5.47;;
17201;SDS011;8717;53.588;10.176;2024-01-27T06:52:39;23.27;;;5.17;;
17201;SDS011;8717;53.588;10.176;2024-01-27T06:55:06;22.27;;;5.40;;
17201;SDS011;8717;53.588;10.176;2024-01-27T06:57:35;23.90;;;5.03;;
17201;SDS011;8717;53.588;10.176;2024-01-27T07:00:04;22.03;;;4.97;;
17201;SDS011;8717;53.588;10.176;2024-01-27T07:02:32;28.10;;;4.90;;
17201;SDS011;8717;53.588;10.176;2024-01-27T07:04:59;24.40;;;5.27;;
17201;SDS011;8717;53.588;10.176;2024-01-27T07:07:26;22.47;;;5.03;;
17201;SDS011;8717;53.588;10.176;2024-01-27T07:09:54;22.60;;;4.80;;
17201;SDS011;8717;53.588;10.176;2024-01-27T07:12:21;21.90;;;4.63;;
17201;SDS011;8717;53.588;10.176;2024-01-27T07:14:48;18.27;;;4.60;;
17201;SDS011;8717;53.588;10.176;2024-01-27T07:17:17;16.93;;;4.60;;
17201;SDS011;8717;53.588;10.176;2024-01-27T07:19:44;21.20;;;4.37;;
17201;SDS011;8717;53.588;10.176;2024-01-27T07:22:11;27.07;;;4.63;;
17201;SDS011;8717;53.588;10.176;2024-01-27T07:24:38;21.90;;;4.47;;
17201;SDS011;8717;53.588;10.176;2024-01-27T07:27:05;21.57;;;4.63;;
17201;SDS011;8717;53.588;10.176;2024-01-27T07:29:31;22.53;;;5.87;;
17201;SDS011;8717;53.588;10.176;2024-01-27T07:31:58;24.93;;;4.83;;
17201;SDS011;8717;53.588;10.176;2024-01-27T07:34:26;16.60;;;3.83;;
17201;SDS011;8717;53.588;10.176;2024-01-27T07:36:53;21.37;;;4.50;;
17201;SDS011;8717;53.588;10.176;2024-01-27T07:39:20;22.47;;;4.73;;
17201;SDS011;8717;53.588;10.176;2024-01-27T07:41:46;17.60;;;3.90;;
17201;SDS011;8717;53.588;10.176;2024-01-27T07:44:14;22.53;;;4.90;;
17201;SDS011;8717;53.588;10.176;2024-01-27T07:46:41;20.97;;;5.03;;
17201;SDS011;8717;53.588;10.176;2024-01-27T07:49:09;21.60;;;4.57;;
17201;SDS011;8717;53.588;10.176;2024-01-27T07:51:39;16.70;;;3.67;;
17201;SDS011;8717;53.588;10.176;2024-01-27T07:54:06;25.67;;;4.43;;
17201;SDS011;8717;53.588;10.176;2024-01-27T07:56:32;20.63;;;4.47;;
17201;SDS011;8717;53.588;10.176;2024-01-27T07:58:59;23.83;;;4.60;;
17201;SDS011;8717;53.588;10.176;2024-01-27T08:01:26;23.20;;;3.97;;
17201;SDS011;8717;53.588;10.176;2024-01-27T08:03:53;21.83;;;4.50;;
17201;SDS011;8717;53.588;10.176;2024-01-27T08:06:21;23.90;;;4.10;;
17201;SDS011;8717;53.588;10.176;2024-01-27T08:08:54;28.27;;;5.57;;
17201;SDS011;8717;53.588;10.176;2024-01-27T08:11:21;20.23;;;4.53;;
17201;SDS011;8717;53.588;10.176;2024-01-27T08:13:49;18.97;;;4.30;;
17201;SDS011;8717;53.588;10.176;2024-01-27T08:16:17;20.90;;;4.33;;
17201;SDS011;8717;53.588;10.176;2024-01-27T08:18:44;18.67;;;4.10;;
17201;SDS011;8717;53.588;10.176;2024-01-27T08:21:11;23.17;;;4.53;;
17201;SDS011;8717;53.588;10.176;2024-01-27T08:23:38;22.80;;;3.97;;
17201;SDS011;8717;53.588;10.176;2024-01-27T08:26:06;17.60;;;4.40;;
17201;SDS011;8717;53.588;10.176;2024-01-27T08:28:32;20.37;;;4.90;;
17201;SDS011;8717;53.588;10.176;2024-01-27T08:30:59;20.37;;;4.83;;
17201;SDS011;8717;53.588;10.176;2024-01-27T08:33:26;20.33;;;4.87;;
17201;SDS011;8717;53.588;10.176;2024-01-27T08:35:53;19.60;;;3.97;;
17201;SDS011;8717;53.588;10.176;2024-01-27T08:38:20;19.63;;;4.43;;
17201;SDS011;8717;53.588;10.176;2024-01-27T08:40:47;15.70;;;4.83;;
17201;SDS011;8717;53.588;10.176;2024-01-27T08:43:15;19.00;;;4.47;;
17201;SDS011;8717;53.588;10.176;2024-01-27T08:45:42;18.60;;;4.40;;
17201;SDS011;8717;53.588;10.176;2024-01-27T08:48:08;23.67;;;5.13;;
17201;SDS011;8717;53.588;10.176;2024-01-27T08:50:36;21.13;;;4.07;;
17201;SDS011;8717;53.588;10.176;2024-01-27T08:53:03;17.90;;;4.20;;
17201;SDS011;8717;53.588;10.176;2024-01-27T08:55:30;20.50;;;4.50;;
17201;SDS011;8717;53.588;10.176;2024-01-27T08:57:56;19.87;;;4.60;;
17201;SDS011;8717;53.588;10.176;2024-01-27T09:00:25;18.13;;;3.90;;
17201;SDS011;8717;53.588;10.176;2024-01-27T09:02:51;14.80;;;3.90;;
17201;SDS011;8717;53.588;10.176;2024-01-27T09:05:19;19.33;;;4.23;;
17201;SDS011;8717;53.588;10.176;2024-01-27T09:07:45;16.10;;;3.90;;
17201;SDS011;8717;53.588;10.176;2024-01-27T09:10:12;17.83;;;3.70;;
17201;SDS011;8717;53.588;10.176;2024-01-27T09:12:41;13.87;;;4.03;;
17201;SDS011;8717;53.588;10.176;2024-01-27T09:15:08;14.60;;;3.63;;
17201;SDS011;8717;53.588;10.176;2024-01-27T09:17:36;14.43;;;3.83;;
17201;SDS011;8717;53.588;10.176;2024-01-27T09:20:03;19.37;;;4.07;;
17201;SDS011;8717;53.588;10.176;2024-01-27T09:22:31;19.63;;;4.47;;
17201;SDS011;8717;53.588;10.176;2024-01-27T09:24:57;18.57;;;4.97;;
17201;SDS011;8717;53.588;10.176;2024-01-27T09:27:24;16.50;;;4.10;;
17201;SDS011;8717;53.588;10.176;2024-01-27T09:29:51;16.93;;;4.10;;
17201;SDS011;8717;53.588;10.176;2024-01-27T09:32:18;17.23;;;4.00;;
17201;SDS011;8717;53.588;10.176;2024-01-27T09:34:46;17.23;;;4.40;;
17201;SDS011;8717;53.588;10.176;2024-01-27T09:37:13;17.03;;;3.87;;
17201;SDS011;8717;53.588;10.176;2024-01-27T09:39:39;16.17;;;4.13;;
17201;SDS011;8717;53.588;10.176;2024-01-27T09:42:06;12.20;;;4.20;;
17201;SDS011;8717;53.588;10.176;2024-01-27T09:44:39;22.00;;;4.57;;
17201;SDS011;8717;53.588;10.176;2024-01-27T09:47:08;14.67;;;4.03;;
17201;SDS011;8717;53.588;10.176;2024-01-27T09:49:35;15.60;;;3.90;;
17201;SDS011;8717;53.588;10.176;2024-01-27T09:52:06;15.67;;;3.57;;
17201;SDS011;8717;53.588;10.176;2024-01-27T09:54:33;15.07;;;4.63;;
17201;SDS011;8717;53.588;10.176;2024-01-27T09:57:00;19.33;;;4.67;;
17201;SDS011;8717;53.588;10.176;2024-01-27T09:59:27;17.47;;;4.50;;
17201;SDS011;8717;53.588;10.176;2024-01-27T10:01:55;24.40;;;4.30;;
17201;SDS011;8717;53.588;10.176;2024-01-27T10:04:22;15.77;;;4.40;;
17201;SDS011;8717;53.588;10.176;2024-01-27T10:06:51;14.00;;;3.77;;
17201;SDS011;8717;53.588;10.176;2024-01-27T10:09:19;17.57;;;5.00;;
17201;SDS011;8717;53.588;10.176;2024-01-27T10:11:46;13.93;;;3.87;;
17201;SDS011;8717;53.588;10.176;2024-01-27T10:14:13;16.67;;;3.83;;
17201;SDS011;8717;53.588;10.176;2024-01-27T10:16:40;16.67;;;4.37;;
17201;SDS011;8717;53.588;10.176;2024-01-27T10:19:11;17.73;;;3.93;;
17201;SDS011;8717;53.588;10.176;2024-01-27T10:21:40;15.47;;;4.20;;
17201;SDS011;8717;53.588;10.176;2024-01-27T10:24:07;13.67;;;3.83;;
17201;SDS011;8717;53.588;10.176;2024-01-27T10:26:35;12.80;;;4.13;;
17201;SDS011;8717;53.588;10.176;2024-01-27T10:29:02;18.83;;;4.37;;
17201;SDS011;8717;53.588;10.176;2024-01-27T10:31:30;11.97;;;3.77;;
17201;SDS011;8717;53.588;10.176;2024-01-27T10:33:57;13.97;;;4.27;;
17201;SDS011;8717;53.588;10.176;2024-01-27T10:36:26;16.90;;;3.70;;
17201;SDS011;8717;53.588;10.176;2024-01-27T10:39:13;13.50;;;3.80;;
17201;SDS011;8717;53.588;10.176;2024-01-27T10:41:42;14.87;;;3.53;;
17201;SDS011;8717;53.588;10.176;2024-01-27T10:44:11;17.50;;;4.20;;
17201;SDS011;8717;53.588;10.176;2024-01-27T10:46:41;14.40;;;3.50;;
17201;SDS011;8717;53.588;10.176;2024-01-27T10:49:10;16.97;;;4.67;;
17201;SDS011;8717;53.588;10.176;2024-01-27T10:51:39;14.47;;;3.40;;
17201;SDS011;8717;53.588;10.176;2024-01-27T10:54:10;12.77;;;3.30;;
17201;SDS011;8717;53.588;10.176;2024-01-27T10:56:43;12.73;;;4.00;;
17201;SDS011;8717;53.588;10.176;2024-01-27T10:59:12;16.30;;;4.10;;
17201;SDS011;8717;53.588;10.176;2024-01-27T11:01:40;20.23;;;4.47;;
17201;SDS011;8717;53.588;10.176;2024-01-27T11:04:10;14.00;;;3.73;;
17201;SDS011;8717;53.588;10.176;2024-01-27T11:06:39;18.20;;;4.03;;
17201;SDS011;8717;53.588;10.176;2024-01-27T11:09:08;15.17;;;3.90;;
17201;SDS011;8717;53.588;10.176;2024-01-27T11:11:36;13.30;;;3.57;;
17201;SDS011;8717;53.588;10.176;2024-01-27T11:14:05;16.10;;;4.23;;
17201;SDS011;8717;53.588;10.176;2024-01-27T11:16:33;16.67;;;5.17;;
17201;SDS011;8717;53.588;10.176;2024-01-27T11:19:00;12.43;;;3.80;;
17201;SDS011;8717;53.588;10.176;2024-01-27T11:21:28;17.07;;;3.73;;
17201;SDS011;8717;53.588;10.176;2024-01-27T11:23:55;14.80;;;3.97;;
17201;SDS011;8717;53.588;10.176;2024-01-27T11:26:22;13.17;;;3.67;;
17201;SDS011;8717;53.588;10.176;2024-01-27T11:28:51;16.03;;;4.17;;
17201;SDS011;8717;53.588;10.176;2024-01-27T11:31:19;13.30;;;3.70;;
17201;SDS011;8717;53.588;10.176;2024-01-27T11:33:47;13.13;;;3.63;;
17201;SDS011;8717;53.588;10.176;2024-01-27T11:36:20;13.10;;;4.23;;
17201;SDS011;8717;53.588;10.176;2024-01-27T11:38:48;18.30;;;3.70;;
17201;SDS011;8717;53.588;10.176;2024-01-27T11:41:25;14.30;;;3.77;;
17201;SDS011;8717;53.588;10.176;2024-01-27T11:43:53;15.40;;;3.90;;
17201;SDS011;8717;53.588;10.176;2024-01-27T11:46:21;14.43;;;3.60;;
17201;SDS011;8717;53.588;10.176;2024-01-27T11:48:48;17.87;;;3.93;;
17201;SDS011;8717;53.588;10.176;2024-01-27T11:51:15;13.07;;;3.73;;
17201;SDS011;8717;53.588;10.176;2024-01-27T11:53:43;13.10;;;3.83;;
17201;SDS011;8717;53.588;10.176;2024-01-27T11:56:10;15.37;;;3.73;;
17201;SDS011;8717;53.588;10.176;2024-01-27T11:58:37;13.63;;;3.80;;
17201;SDS011;8717;53.588;10.176;2024-01-27T12:01:04;14.00;;;3.70;;
17201;SDS011;8717;53.588;10.176;2024-01-27T12:03:32;13.97;;;3.33;;
17201;SDS011;8717;53.588;10.176;2024-01-27T12:05:59;12.77;;;3.37;;
17201;SDS011;8717;53.588;10.176;2024-01-27T12:08:25;11.93;;;3.33;;
17201;SDS011;8717;53.588;10.176;2024-01-27T12:10:53;14.40;;;3.47;;
17201;SDS011;8717;53.588;10.176;2024-01-27T12:13:19;14.60;;;3.90;;
17201;SDS011;8717;53.588;10.176;2024-01-27T12:15:46;12.10;;;3.50;;
17201;SDS011;8717;53.588;10.176;2024-01-27T12:18:14;14.33;;;3.20;;
17201;SDS011;8717;53.588;10.176;2024-01-27T12:20:42;13.60;;;3.90;;
17201;SDS011;8717;53.588;10.176;2024-01-27T12:23:08;12.97;;;3.37;;
17201;SDS011;8717;53.588;10.176;2024-01-27T12:25:35;15.57;;;3.43;;
17201;SDS011;8717;53.588;10.176;2024-01-27T12:28:02;13.23;;;3.40;;
17201;SDS011;8717;53.588;10.176;2024-01-27T12:30:31;10.97;;;3.27;;
17201;SDS011;8717;53.588;10.176;2024-01-27T12:32:58;15.37;;;3.27;;
17201;SDS011;8717;53.588;10.176;2024-01-27T12:35:25;11.57;;;3.13;;
17201;SDS011;8717;53.588;10.176;2024-01-27T12:37:55;13.13;;;3.30;;
17201;SDS011;8717;53.588;10.176;2024-01-27T12:40:22;14.37;;;3.00;;
17201;SDS011;8717;53.588;10.176;2024-01-27T12:42:49;15.93;;;3.33;;
17201;SDS011;8717;53.588;10.176;2024-01-27T12:45:16;10.80;;;3.70;;
17201;SDS011;8717;53.588;10.176;2024-01-27T12:47:43;13.03;;;3.23;;
17201;SDS011;8717;53.588;10.176;2024-01-27T12:50:10;11.70;;;2.77;;
17201;SDS011;8717;53.588;10.176;2024-01-27T12:52:37;15.50;;;3.87;;
17201;SDS011;8717;53.588;10.176;2024-01-27T12:55:06;10.30;;;3.03;;
17201;SDS011;8717;53.588;10.176;2024-01-27T12:57:33;10.20;;;3.00;;
17201;SDS011;8717;53.588;10.176;2024-01-27T13:00:01;15.00;;;3.83;;
17201;SDS011;8717;53.588;10.176;2024-01-27T13:02:34;11.37;;;3.03;;
17201;SDS011;8717;53.588;10.176;2024-01-27T13:05:01;12.23;;;3.40;;
17201;SDS011;8717;53.588;10.176;2024-01-27T13:07:28;12.83;;;3.07;;
17201;SDS011;8717;53.588;10.176;2024-01-27T13:09:55;12.13;;;3.20;;
17201;SDS011;8717;53.588;10.176;2024-01-27T13:12:23;14.37;;;3.23;;
17201;SDS011;8717;53.588;10.176;2024-01-27T13:14:50;11.17;;;3.00;;
17201;SDS011;8717;53.588;10.176;2024-01-27T13:17:17;9.47;;;3.10;;
17201;SDS011;8717;53.588;10.176;2024-01-27T13:19:44;14.70;;;3.67;;
17201;SDS011;8717;53.588;10.176;2024-01-27T13:22:11;13.33;;;3.40;;
17201;SDS011;8717;53.588;10.176;2024-01-27T13:24:38;17.00;;;3.90;;
17201;SDS011;8717;53.588;10.176;2024-01-27T13:27:05;12.70;;;3.53;;
17201;SDS011;8717;53.588;10.176;2024-01-27T13:29:34;13.30;;;3.70;;
17201;SDS011;8717;53.588;10.176;2024-01-27T13:32:01;14.97;;;2.93;;
17201;SDS011;8717;53.588;10.176;2024-01-27T13:34:28;12.00;;;3.40;;
17201;SDS011;8717;53.588;10.176;2024-01-27T13:36:55;14.90;;;3.60;;
17201;SDS011;8717;53.588;10.176;2024-01-27T13:39:23;12.87;;;3.00;;
17201;SDS011;8717;53.588;10.176;2024-01-27T13:41:50;13.30;;;3.10;;
17201;SDS011;8717;53.588;10.176;2024-01-27T13:44:17;8.53;;;2.83;;
17201;SDS011;8717;53.588;10.176;2024-01-27T13:46:45;10.87;;;3.10;;
17201;SDS011;8717;53.588;10.176;2024-01-27T13:49:12;13.80;;;3.60;;
17201;SDS011;8717;53.588;10.176;2024-01-27T13:51:39;10.93;;;3.20;;
17201;SDS011;8717;53.588;10.176;2024-01-27T13:54:06;15.10;;;3.27;;
17201;SDS011;8717;53.588;10.176;2024-01-27T13:56:34;14.47;;;3.60;;
17201;SDS011;8717;53.588;10.176;2024-01-27T13:59:01;12.87;;;3.60;;
17201;SDS011;8717;53.588;10.176;2024-01-27T14:01:29;12.83;;;3.10;;
17201;SDS011;8717;53.588;10.176;2024-01-27T14:03:57;12.23;;;3.70;;
17201;SDS011;8717;53.588;10.176;2024-01-27T14:06:24;12.37;;;3.27;;
17201;SDS011;8717;53.588;10.176;2024-01-27T14:08:51;10.83;;;3.57;;
17201;SDS011;8717;53.588;10.176;2024-01-27T14:11:17;13.43;;;3.57;;
17201;SDS011;8717;53.588;10.176;2024-01-27T14:13:46;15.23;;;3.80;;
17201;SDS011;8717;53.588;10.176;2024-01-27T14:16:13;13.83;;;4.00;;
17201;SDS011;8717;53.588;10.176;2024-01-27T14:18:39;11.97;;;3.00;;
17201;SDS011;8717;53.588;10.176;2024-01-27T14:21:08;11.57;;;3.57;;
17201;SDS011;8717;53.588;10.176;2024-01-27T14:23:36;13.30;;;3.80;;
17201;SDS011;8717;53.588;10.176;2024-01-27T14:26:03;12.43;;;4.00;;
17201;SDS011;8717;53.588;10.176;2024-01-27T14:28:32;11.50;;;3.37;;
17201;SDS011;8717;53.588;10.176;2024-01-27T14:31:00;15.67;;;3.97;;
17201;SDS011;8717;53.588;10.176;2024-01-27T14:33:27;12.83;;;3.90;;
17201;SDS011;8717;53.588;10.176;2024-01-27T14:35:53;13.17;;;4.70;;